Terminal Aerodrome Forecast
Issued by NWS

Home | Current Version | Previous Version | Text Only | Print | Product List | Glossary On
Versions: 1 2 3 4 5 6 7 8 9 10 11 12 13 14 15 16 17 18
000
FTUS44 KBMX 280500
TAFTOI
TAF
KTOI 280535Z 2806/0106 01005KT P6SM SCT120
     FM280900 04006KT P6SM BKN120
     FM281200 08010KT P6SM OVC120
     FM010000 07008KT P6SM BKN015=

USA.gov is the U.S. government's official web portal to all federal, state and local government web resources and services.